To NAV CANADA Home Page Login to a new session Search on AWWS site Disclaimer Vers la page française équivalente Tips FAQ What's new on the site To the Forecasts and Observations / NOTAM section To "File a Flight Plan" website Publications and other links Update of the User's profile FIC Telephone Numbers My Weather Data Folder Route Weather Data Regional Weather Data Local Weather Data To the Forecasts and Observations / NOTAM section
Request Generated 04/24/2019 at 16:16:03 UTC . Weather information available at that time is displayed.

METAR/TAF

HIGH LEVEL/AB    (show WxCam)

METAR CYOJ 241600Z VRB02KT 15SM FEW065 FEW130 08/M09 A2981 RMK SC1AC1 SLP111=
METAR CYOJ 241500Z VRB02KT 15SM FEW060 05/M09 A2981 RMK SC1 SLP109=
METAR CYOJ 241400Z 00000KT 15SM FEW060 M01/M08 A2980 RMK SC1 SC TR SLP107=

TAF CYOJ 241239Z 2413/2501 VRB03KT P6SM SCT250
BECMG 2413/2415 29012KT
FM241700 28012G22KT P6SM SCT070 TEMPO 2417/2421 P6SM -SHRA BKN070
FM242100 28015G25KT P6SM SCT090
RMK FCST BASED ON AUTO OBS. NXT FCST BY 241900Z=
Your time UTC time
Weather data provided by Environment Canada and NAV CANADA